Currie, Australia
Current Conditions -  °F | °C
As of 1:00 AM on Sunday 23 Nov 2014 (Local Time) from YMAV Reporting Station
Clear Clear  
Wind Chill: 63°   Ceiling: Unl
Heat Index: 63°   Visibility: 6mi
Dew Point: 55°   Wind: 10mph
Humidity: 77%   Direction: 290°WNW
Pressure: 29.83"   Gusts: NA
Location:  39.93°S, 143.85°E
Report Text: YMAV 221400Z AUTO 29009KT 9999 // NCD 17/13 Q1010
Loading
Personal Weather Stations






























Interactive Weather Map New forecast layout! Learn more

10-Day Weather Forecast

Advertisements
Track Severe Weather on mobile